sensor_id;sensor_type;location;lat;lon;timestamp;pressure;altitude;pressure_sealevel;temperature;humidity
4392;BME280;2210;51.938;8.488;2023-01-25T00:00:37;102661.97;;;0.49;100.00
4392;BME280;2210;51.938;8.488;2023-01-25T00:04:37;102647.06;;;0.55;100.00
4392;BME280;2210;51.938;8.488;2023-01-25T00:08:40;102647.94;;;0.55;100.00
4392;BME280;2210;51.938;8.488;2023-01-25T00:12:43;102646.28;;;0.41;100.00
4392;BME280;2210;51.938;8.488;2023-01-25T00:16:44;102638.03;;;0.43;100.00
4392;BME280;2210;51.938;8.488;2023-01-25T00:20:47;102638.25;;;0.40;100.00
4392;BME280;2210;51.938;8.488;2023-01-25T00:24:47;102637.66;;;0.47;100.00
4392;BME280;2210;51.938;8.488;2023-01-25T00:28:52;102636.53;;;0.50;100.00
4392;BME280;2210;51.938;8.488;2023-01-25T00:37:28;102623.94;;;0.38;100.00
4392;BME280;2210;51.938;8.488;2023-01-25T00:41:31;102608.69;;;0.48;100.00
4392;BME280;2210;51.938;8.488;2023-01-25T00:45:38;102596.72;;;0.50;100.00
4392;BME280;2210;51.938;8.488;2023-01-25T00:49:47;102596.59;;;0.41;100.00
4392;BME280;2210;51.938;8.488;2023-01-25T00:53:47;102594.72;;;0.41;100.00
4392;BME280;2210;51.938;8.488;2023-01-25T00:57:51;102587.44;;;0.42;100.00
4392;BME280;2210;51.938;8.488;2023-01-25T01:01:52;102596.09;;;0.47;100.00
4392;BME280;2210;51.938;8.488;2023-01-25T01:06:03;102590.91;;;0.55;100.00
4392;BME280;2210;51.938;8.488;2023-01-25T01:10:05;102592.91;;;0.64;100.00
4392;BME280;2210;51.938;8.488;2023-01-25T01:14:08;102587.22;;;0.45;100.00
4392;BME280;2210;51.938;8.488;2023-01-25T01:18:09;102586.69;;;0.40;100.00
4392;BME280;2210;51.938;8.488;2023-01-25T01:22:09;102590.97;;;0.31;100.00
4392;BME280;2210;51.938;8.488;2023-01-25T01:26:14;102589.53;;;0.38;100.00
4392;BME280;2210;51.938;8.488;2023-01-25T01:30:15;102586.44;;;0.31;100.00
4392;BME280;2210;51.938;8.488;2023-01-25T01:34:18;102590.63;;;0.36;100.00
4392;BME280;2210;51.938;8.488;2023-01-25T01:38:19;102588.13;;;0.32;100.00
4392;BME280;2210;51.938;8.488;2023-01-25T01:42:19;102589.28;;;0.30;100.00
4392;BME280;2210;51.938;8.488;2023-01-25T01:46:34;102583.34;;;0.36;100.00
4392;BME280;2210;51.938;8.488;2023-01-25T01:50:36;102590.84;;;0.32;100.00
4392;BME280;2210;51.938;8.488;2023-01-25T01:54:48;102592.25;;;0.38;100.00
4392;BME280;2210;51.938;8.488;2023-01-25T01:58:57;102591.88;;;0.31;100.00
4392;BME280;2210;51.938;8.488;2023-01-25T02:03:04;102598.41;;;0.40;100.00
4392;BME280;2210;51.938;8.488;2023-01-25T02:07:08;102587.03;;;0.35;100.00
4392;BME280;2210;51.938;8.488;2023-01-25T02:11:12;102584.69;;;0.30;100.00
4392;BME280;2210;51.938;8.488;2023-01-25T02:15:13;102580.13;;;0.31;100.00
4392;BME280;2210;51.938;8.488;2023-01-25T02:19:51;102577.69;;;0.39;100.00
4392;BME280;2210;51.938;8.488;2023-01-25T02:24:00;102573.53;;;0.46;100.00
4392;BME280;2210;51.938;8.488;2023-01-25T02:28:20;102570.69;;;0.48;100.00
4392;BME280;2210;51.938;8.488;2023-01-25T02:32:22;102568.81;;;0.37;100.00
4392;BME280;2210;51.938;8.488;2023-01-25T02:36:34;102573.34;;;0.37;100.00
4392;BME280;2210;51.938;8.488;2023-01-25T02:40:48;102572.25;;;0.39;100.00
4392;BME280;2210;51.938;8.488;2023-01-25T02:44:49;102567.44;;;0.31;100.00
4392;BME280;2210;51.938;8.488;2023-01-25T02:48:50;102566.81;;;0.39;100.00
4392;BME280;2210;51.938;8.488;2023-01-25T02:52:50;102554.34;;;0.37;100.00
4392;BME280;2210;51.938;8.488;2023-01-25T02:56:51;102554.88;;;0.42;100.00
4392;BME280;2210;51.938;8.488;2023-01-25T03:00:51;102553.38;;;0.38;100.00
4392;BME280;2210;51.938;8.488;2023-01-25T03:05:01;102551.44;;;0.40;100.00
4392;BME280;2210;51.938;8.488;2023-01-25T03:09:03;102537.47;;;0.44;100.00
4392;BME280;2210;51.938;8.488;2023-01-25T03:13:03;102538.25;;;0.46;100.00
4392;BME280;2210;51.938;8.488;2023-01-25T03:17:13;102528.75;;;0.52;100.00
4392;BME280;2210;51.938;8.488;2023-01-25T03:21:18;102529.00;;;0.60;100.00
4392;BME280;2210;51.938;8.488;2023-01-25T03:25:18;102522.34;;;0.64;100.00
4392;BME280;2210;51.938;8.488;2023-01-25T03:29:21;102510.97;;;0.59;100.00
4392;BME280;2210;51.938;8.488;2023-01-25T03:33:25;102505.88;;;0.32;100.00
4392;BME280;2210;51.938;8.488;2023-01-25T03:37:25;102494.31;;;0.30;100.00
4392;BME280;2210;51.938;8.488;2023-01-25T03:41:30;102484.56;;;0.39;100.00
4392;BME280;2210;51.938;8.488;2023-01-25T03:45:30;102484.56;;;0.50;100.00
4392;BME280;2210;51.938;8.488;2023-01-25T03:49:30;102474.47;;;0.41;100.00
4392;BME280;2210;51.938;8.488;2023-01-25T03:53:36;102476.91;;;0.44;100.00
4392;BME280;2210;51.938;8.488;2023-01-25T03:57:45;102478.41;;;0.48;100.00
4392;BME280;2210;51.938;8.488;2023-01-25T04:01:48;102473.34;;;0.55;100.00
4392;BME280;2210;51.938;8.488;2023-01-25T04:05:55;102462.50;;;0.55;100.00
4392;BME280;2210;51.938;8.488;2023-01-25T04:09:58;102459.66;;;0.56;100.00
4392;BME280;2210;51.938;8.488;2023-01-25T04:13:58;102455.19;;;0.55;100.00
4392;BME280;2210;51.938;8.488;2023-01-25T04:17:59;102451.75;;;0.42;100.00
4392;BME280;2210;51.938;8.488;2023-01-25T04:22:03;102465.44;;;0.52;100.00
4392;BME280;2210;51.938;8.488;2023-01-25T04:26:07;102462.13;;;0.48;100.00
4392;BME280;2210;51.938;8.488;2023-01-25T04:30:08;102453.47;;;0.43;100.00
4392;BME280;2210;51.938;8.488;2023-01-25T04:34:11;102448.31;;;0.40;100.00
4392;BME280;2210;51.938;8.488;2023-01-25T04:38:12;102452.25;;;0.36;100.00
4392;BME280;2210;51.938;8.488;2023-01-25T04:42:12;102451.00;;;0.28;100.00
4392;BME280;2210;51.938;8.488;2023-01-25T04:46:12;102452.84;;;0.16;100.00
4392;BME280;2210;51.938;8.488;2023-01-25T04:50:13;102449.13;;;0.17;100.00
4392;BME280;2210;51.938;8.488;2023-01-25T04:54:19;102444.59;;;0.18;100.00
4392;BME280;2210;51.938;8.488;2023-01-25T04:58:22;102442.72;;;0.19;100.00
4392;BME280;2210;51.938;8.488;2023-01-25T05:02:23;102448.28;;;0.28;100.00
4392;BME280;2210;51.938;8.488;2023-01-25T05:06:26;102442.63;;;0.43;100.00
4392;BME280;2210;51.938;8.488;2023-01-25T05:10:29;102443.84;;;0.39;100.00
4392;BME280;2210;51.938;8.488;2023-01-25T05:14:29;102435.34;;;0.55;100.00
4392;BME280;2210;51.938;8.488;2023-01-25T05:18:29;102438.53;;;0.48;100.00
4392;BME280;2210;51.938;8.488;2023-01-25T05:22:32;102435.34;;;0.43;100.00
4392;BME280;2210;51.938;8.488;2023-01-25T05:26:32;102435.72;;;0.39;100.00
4392;BME280;2210;51.938;8.488;2023-01-25T05:30:51;102436.81;;;0.36;100.00
4392;BME280;2210;51.938;8.488;2023-01-25T05:34:58;102436.06;;;0.23;100.00
4392;BME280;2210;51.938;8.488;2023-01-25T05:38:58;102433.59;;;0.31;100.00
4392;BME280;2210;51.938;8.488;2023-01-25T05:43:01;102436.31;;;0.20;100.00
4392;BME280;2210;51.938;8.488;2023-01-25T05:47:05;102433.22;;;0.13;100.00
4392;BME280;2210;51.938;8.488;2023-01-25T05:51:05;102427.81;;;0.13;100.00
4392;BME280;2210;51.938;8.488;2023-01-25T05:55:11;102432.00;;;0.17;100.00
4392;BME280;2210;51.938;8.488;2023-01-25T05:59:12;102424.00;;;0.15;100.00
4392;BME280;2210;51.938;8.488;2023-01-25T06:03:12;102427.06;;;0.22;100.00
4392;BME280;2210;51.938;8.488;2023-01-25T06:07:12;102423.13;;;0.15;100.00
4392;BME280;2210;51.938;8.488;2023-01-25T06:11:15;102412.28;;;0.26;100.00
4392;BME280;2210;51.938;8.488;2023-01-25T06:15:25;102408.34;;;0.19;100.00
4392;BME280;2210;51.938;8.488;2023-01-25T06:19:32;102416.56;;;0.17;100.00
4392;BME280;2210;51.938;8.488;2023-01-25T06:23:32;102416.47;;;0.19;100.00
4392;BME280;2210;51.938;8.488;2023-01-25T06:27:32;102409.44;;;0.16;100.00
4392;BME280;2210;51.938;8.488;2023-01-25T06:31:32;102411.66;;;0.23;100.00
4392;BME280;2210;51.938;8.488;2023-01-25T06:35:33;102408.06;;;0.33;100.00
4392;BME280;2210;51.938;8.488;2023-01-25T06:39:34;102421.41;;;0.14;100.00
4392;BME280;2210;51.938;8.488;2023-01-25T06:43:34;102423.47;;;0.22;100.00
4392;BME280;2210;51.938;8.488;2023-01-25T06:47:38;102422.75;;;0.20;100.00
4392;BME280;2210;51.938;8.488;2023-01-25T06:51:42;102422.63;;;0.32;100.00
4392;BME280;2210;51.938;8.488;2023-01-25T06:55:45;102426.81;;;0.37;100.00
4392;BME280;2210;51.938;8.488;2023-01-25T06:59:57;102419.69;;;0.36;100.00
4392;BME280;2210;51.938;8.488;2023-01-25T07:04:04;102434.63;;;0.30;100.00
4392;BME280;2210;51.938;8.488;2023-01-25T07:08:04;102428.56;;;0.38;100.00
4392;BME280;2210;51.938;8.488;2023-01-25T07:12:04;102413.75;;;0.30;100.00
4392;BME280;2210;51.938;8.488;2023-01-25T07:16:11;102412.66;;;0.33;100.00
4392;BME280;2210;51.938;8.488;2023-01-25T07:20:15;102417.47;;;0.41;100.00
4392;BME280;2210;51.938;8.488;2023-01-25T07:24:17;102413.50;;;0.22;100.00
4392;BME280;2210;51.938;8.488;2023-01-25T07:28:17;102411.53;;;0.13;100.00
4392;BME280;2210;51.938;8.488;2023-01-25T07:32:17;102413.38;;;0.12;100.00
4392;BME280;2210;51.938;8.488;2023-01-25T07:36:18;102412.03;;;0.29;100.00
4392;BME280;2210;51.938;8.488;2023-01-25T07:40:18;102405.88;;;0.27;100.00
4392;BME280;2210;51.938;8.488;2023-01-25T07:44:19;102397.22;;;0.33;100.00
4392;BME280;2210;51.938;8.488;2023-01-25T07:48:19;102402.31;;;0.38;100.00
4392;BME280;2210;51.938;8.488;2023-01-25T07:52:22;102402.41;;;0.25;100.00
4392;BME280;2210;51.938;8.488;2023-01-25T07:56:34;102403.16;;;0.27;100.00
4392;BME280;2210;51.938;8.488;2023-01-25T08:00:45;102399.91;;;0.11;100.00
4392;BME280;2210;51.938;8.488;2023-01-25T08:04:46;102393.16;;;0.05;100.00
4392;BME280;2210;51.938;8.488;2023-01-25T08:08:49;102388.22;;;0.10;100.00
4392;BME280;2210;51.938;8.488;2023-01-25T08:12:55;102388.59;;;0.17;100.00
4392;BME280;2210;51.938;8.488;2023-01-25T08:16:55;102395.25;;;0.24;100.00
4392;BME280;2210;51.938;8.488;2023-01-25T08:21:02;102401.19;;;0.29;100.00
4392;BME280;2210;51.938;8.488;2023-01-25T08:25:03;102397.09;;;0.35;100.00
4392;BME280;2210;51.938;8.488;2023-01-25T08:29:04;102389.34;;;0.30;100.00
4392;BME280;2210;51.938;8.488;2023-01-25T08:33:05;102383.41;;;0.37;100.00
4392;BME280;2210;51.938;8.488;2023-01-25T08:37:05;102373.19;;;0.29;100.00
4392;BME280;2210;51.938;8.488;2023-01-25T08:41:06;102367.91;;;0.27;100.00
4392;BME280;2210;51.938;8.488;2023-01-25T08:45:07;102373.19;;;0.29;100.00
4392;BME280;2210;51.938;8.488;2023-01-25T08:49:11;102366.66;;;0.31;100.00
4392;BME280;2210;51.938;8.488;2023-01-25T08:53:14;102359.25;;;0.33;100.00
4392;BME280;2210;51.938;8.488;2023-01-25T08:57:14;102351.34;;;0.30;100.00
4392;BME280;2210;51.938;8.488;2023-01-25T09:01:16;102361.22;;;0.31;100.00
4392;BME280;2210;51.938;8.488;2023-01-25T09:05:16;102357.13;;;0.26;100.00
4392;BME280;2210;51.938;8.488;2023-01-25T09:09:17;102356.06;;;0.17;100.00
4392;BME280;2210;51.938;8.488;2023-01-25T09:13:26;102351.84;;;0.24;100.00
4392;BME280;2210;51.938;8.488;2023-01-25T09:17:26;102350.72;;;0.27;100.00
4392;BME280;2210;51.938;8.488;2023-01-25T09:21:30;102352.69;;;0.36;100.00
4392;BME280;2210;51.938;8.488;2023-01-25T09:25:36;102352.47;;;0.16;100.00
4392;BME280;2210;51.938;8.488;2023-01-25T09:29:42;102341.03;;;0.02;100.00
4392;BME280;2210;51.938;8.488;2023-01-25T09:33:43;102342.25;;;0.09;100.00
4392;BME280;2210;51.938;8.488;2023-01-25T09:37:43;102337.44;;;0.12;100.00
4392;BME280;2210;51.938;8.488;2023-01-25T09:45:46;102333.88;;;0.23;100.00
4392;BME280;2210;51.938;8.488;2023-01-25T09:50:06;102331.88;;;0.03;100.00
4392;BME280;2210;51.938;8.488;2023-01-25T09:54:15;102333.25;;;0.08;100.00
4392;BME280;2210;51.938;8.488;2023-01-25T09:58:20;102323.50;;;0.17;100.00
4392;BME280;2210;51.938;8.488;2023-01-25T10:02:39;102324.38;;;-0.05;100.00
4392;BME280;2210;51.938;8.488;2023-01-25T10:06:48;102313.13;;;-0.23;100.00
4392;BME280;2210;51.938;8.488;2023-01-25T10:10:58;102319.69;;;-0.14;100.00
4392;BME280;2210;51.938;8.488;2023-01-25T10:14:59;102320.31;;;-0.11;100.00
4392;BME280;2210;51.938;8.488;2023-01-25T10:35:56;102290.22;;;-0.08;100.00
4392;BME280;2210;51.938;8.488;2023-01-25T10:44:11;102278.63;;;-0.10;100.00
4392;BME280;2210;51.938;8.488;2023-01-25T10:48:35;102275.94;;;-0.21;100.00
4392;BME280;2210;51.938;8.488;2023-01-25T10:52:35;102267.69;;;-0.20;100.00
4392;BME280;2210;51.938;8.488;2023-01-25T10:56:38;102259.66;;;-0.21;100.00
4392;BME280;2210;51.938;8.488;2023-01-25T11:00:42;102256.69;;;-0.18;100.00
4392;BME280;2210;51.938;8.488;2023-01-25T11:04:42;102254.25;;;-0.21;100.00
4392;BME280;2210;51.938;8.488;2023-01-25T11:08:46;102249.78;;;-0.45;100.00
4392;BME280;2210;51.938;8.488;2023-01-25T11:12:46;102240.34;;;-0.39;100.00
4392;BME280;2210;51.938;8.488;2023-01-25T11:16:46;102232.09;;;-0.38;100.00
4392;BME280;2210;51.938;8.488;2023-01-25T11:21:11;102210.00;;;-0.33;100.00
4392;BME280;2210;51.938;8.488;2023-01-25T11:25:32;102207.69;;;-0.26;100.00
4392;BME280;2210;51.938;8.488;2023-01-25T11:29:32;102209.66;;;-0.28;100.00
4392;BME280;2210;51.938;8.488;2023-01-25T11:33:33;102208.44;;;-0.24;100.00
4392;BME280;2210;51.938;8.488;2023-01-25T11:42:01;102188.34;;;-0.33;100.00
4392;BME280;2210;51.938;8.488;2023-01-25T11:46:11;102185.88;;;-0.36;100.00
4392;BME280;2210;51.938;8.488;2023-01-25T11:50:21;102174.28;;;-0.38;100.00
4392;BME280;2210;51.938;8.488;2023-01-25T11:54:44;102157.34;;;-0.52;100.00
4392;BME280;2210;51.938;8.488;2023-01-25T12:03:28;102137.63;;;-0.65;100.00
4392;BME280;2210;51.938;8.488;2023-01-25T12:08:04;102130.09;;;-0.61;100.00
4392;BME280;2210;51.938;8.488;2023-01-25T12:20:38;102097.09;;;-0.55;100.00
4392;BME280;2210;51.938;8.488;2023-01-25T12:29:26;102089.47;;;-0.50;100.00
4392;BME280;2210;51.938;8.488;2023-01-25T12:33:55;102079.34;;;-0.37;100.00
4392;BME280;2210;51.938;8.488;2023-01-25T12:38:09;102060.59;;;-0.40;100.00
4392;BME280;2210;51.938;8.488;2023-01-25T12:42:35;102048.66;;;-0.37;100.00
4392;BME280;2210;51.938;8.488;2023-01-25T12:46:42;102040.31;;;-0.45;100.00
4392;BME280;2210;51.938;8.488;2023-01-25T12:50:50;102026.88;;;-0.47;100.00
4392;BME280;2210;51.938;8.488;2023-01-25T12:54:52;102009.38;;;-0.43;100.00
4392;BME280;2210;51.938;8.488;2023-01-25T12:59:06;102005.94;;;-0.45;100.00
4392;BME280;2210;51.938;8.488;2023-01-25T13:07:42;101988.00;;;-0.57;100.00
4392;BME280;2210;51.938;8.488;2023-01-25T13:11:49;101980.16;;;-0.72;100.00
4392;BME280;2210;51.938;8.488;2023-01-25T13:15:50;101971.78;;;-0.69;100.00
4392;BME280;2210;51.938;8.488;2023-01-25T13:19:52;101978.66;;;-0.64;100.00
4392;BME280;2210;51.938;8.488;2023-01-25T13:24:11;101976.13;;;-0.77;100.00
4392;BME280;2210;51.938;8.488;2023-01-25T13:28:39;101963.81;;;-0.81;100.00
4392;BME280;2210;51.938;8.488;2023-01-25T13:33:01;101961.50;;;-0.86;100.00
4392;BME280;2210;51.938;8.488;2023-01-25T13:37:30;101950.66;;;-0.86;100.00
4392;BME280;2210;51.938;8.488;2023-01-25T13:41:32;101947.47;;;-0.91;100.00
4392;BME280;2210;51.938;8.488;2023-01-25T13:45:34;101944.47;;;-0.77;100.00
4392;BME280;2210;51.938;8.488;2023-01-25T13:49:43;101950.59;;;-0.63;100.00
4392;BME280;2210;51.938;8.488;2023-01-25T13:53:54;101945.31;;;-0.76;100.00
4392;BME280;2210;51.938;8.488;2023-01-25T13:58:18;101936.34;;;-0.77;100.00
4392;BME280;2210;51.938;8.488;2023-01-25T14:02:22;101925.94;;;-0.60;100.00
4392;BME280;2210;51.938;8.488;2023-01-25T14:06:27;101912.06;;;-0.67;100.00
4392;BME280;2210;51.938;8.488;2023-01-25T14:10:27;101920.06;;;-0.65;100.00
4392;BME280;2210;51.938;8.488;2023-01-25T14:14:33;101918.56;;;-0.58;100.00
4392;BME280;2210;51.938;8.488;2023-01-25T14:18:35;101914.06;;;-0.69;100.00
4392;BME280;2210;51.938;8.488;2023-01-25T14:22:37;101908.31;;;-0.87;100.00
4392;BME280;2210;51.938;8.488;2023-01-25T14:26:37;101904.50;;;-0.85;100.00
4392;BME280;2210;51.938;8.488;2023-01-25T14:30:41;101906.63;;;-0.88;100.00
4392;BME280;2210;51.938;8.488;2023-01-25T14:34:41;101909.91;;;-0.85;100.00
4392;BME280;2210;51.938;8.488;2023-01-25T14:38:42;101911.97;;;-0.77;100.00
4392;BME280;2210;51.938;8.488;2023-01-25T14:42:42;101906.31;;;-0.74;100.00
4392;BME280;2210;51.938;8.488;2023-01-25T14:46:42;101903.59;;;-0.74;100.00
4392;BME280;2210;51.938;8.488;2023-01-25T14:50:43;101910.78;;;-0.84;100.00
4392;BME280;2210;51.938;8.488;2023-01-25T14:54:55;101895.13;;;-0.80;100.00
4392;BME280;2210;51.938;8.488;2023-01-25T14:58:56;101893.41;;;-0.81;100.00
4392;BME280;2210;51.938;8.488;2023-01-25T15:03:00;101886.78;;;-0.89;100.00
4392;BME280;2210;51.938;8.488;2023-01-25T15:07:00;101882.53;;;-1.03;100.00
4392;BME280;2210;51.938;8.488;2023-01-25T15:11:04;101880.19;;;-0.96;100.00
4392;BME280;2210;51.938;8.488;2023-01-25T15:15:25;101871.91;;;-0.94;100.00
4392;BME280;2210;51.938;8.488;2023-01-25T15:19:29;101866.91;;;-0.99;100.00
4392;BME280;2210;51.938;8.488;2023-01-25T15:23:36;101865.41;;;-0.92;100.00
4392;BME280;2210;51.938;8.488;2023-01-25T15:27:36;101864.19;;;-0.99;100.00
4392;BME280;2210;51.938;8.488;2023-01-25T15:31:40;101858.78;;;-0.99;100.00
4392;BME280;2210;51.938;8.488;2023-01-25T15:35:41;101854.63;;;-0.82;100.00
4392;BME280;2210;51.938;8.488;2023-01-25T15:39:42;101860.81;;;-0.91;100.00
4392;BME280;2210;51.938;8.488;2023-01-25T15:43:42;101857.91;;;-0.99;100.00
4392;BME280;2210;51.938;8.488;2023-01-25T15:47:42;101849.50;;;-0.85;100.00
4392;BME280;2210;51.938;8.488;2023-01-25T15:51:43;101836.59;;;-0.93;100.00
4392;BME280;2210;51.938;8.488;2023-01-25T15:55:45;101834.69;;;-0.81;100.00
4392;BME280;2210;51.938;8.488;2023-01-25T15:59:46;101830.91;;;-0.90;100.00
4392;BME280;2210;51.938;8.488;2023-01-25T16:03:46;101840.88;;;-0.90;100.00
4392;BME280;2210;51.938;8.488;2023-01-25T16:07:46;101835.41;;;-0.79;100.00
4392;BME280;2210;51.938;8.488;2023-01-25T16:11:50;101831.22;;;-0.72;100.00
4392;BME280;2210;51.938;8.488;2023-01-25T16:15:52;101824.59;;;-0.79;100.00
4392;BME280;2210;51.938;8.488;2023-01-25T16:19:52;101825.94;;;-0.73;100.00
4392;BME280;2210;51.938;8.488;2023-01-25T16:23:52;101835.31;;;-0.77;100.00
4392;BME280;2210;51.938;8.488;2023-01-25T16:27:53;101830.34;;;-0.93;100.00
4392;BME280;2210;51.938;8.488;2023-01-25T16:31:53;101825.47;;;-0.78;100.00
4392;BME280;2210;51.938;8.488;2023-01-25T16:36:11;101809.34;;;-0.80;100.00
4392;BME280;2210;51.938;8.488;2023-01-25T16:40:27;101803.72;;;-0.67;100.00
4392;BME280;2210;51.938;8.488;2023-01-25T16:44:29;101804.44;;;-0.86;100.00
4392;BME280;2210;51.938;8.488;2023-01-25T16:48:29;101799.56;;;-0.92;100.00
4392;BME280;2210;51.938;8.488;2023-01-25T16:52:29;101802.22;;;-0.81;100.00
4392;BME280;2210;51.938;8.488;2023-01-25T16:56:32;101792.28;;;-0.71;100.00
4392;BME280;2210;51.938;8.488;2023-01-25T17:00:36;101792.34;;;-0.82;100.00
4392;BME280;2210;51.938;8.488;2023-01-25T17:04:36;101791.69;;;-0.95;100.00
4392;BME280;2210;51.938;8.488;2023-01-25T17:08:36;101792.28;;;-0.92;100.00
4392;BME280;2210;51.938;8.488;2023-01-25T17:12:37;101793.41;;;-0.94;100.00
4392;BME280;2210;51.938;8.488;2023-01-25T17:16:47;101795.06;;;-1.03;100.00
4392;BME280;2210;51.938;8.488;2023-01-25T17:21:04;101780.78;;;-1.05;100.00
4392;BME280;2210;51.938;8.488;2023-01-25T17:25:05;101775.50;;;-1.07;100.00
4392;BME280;2210;51.938;8.488;2023-01-25T17:29:06;101769.19;;;-0.96;100.00
4392;BME280;2210;51.938;8.488;2023-01-25T17:33:06;101765.09;;;-0.90;100.00
4392;BME280;2210;51.938;8.488;2023-01-25T17:37:07;101766.13;;;-1.03;100.00
4392;BME280;2210;51.938;8.488;2023-01-25T17:41:10;101756.03;;;-1.00;100.00
4392;BME280;2210;51.938;8.488;2023-01-25T17:45:10;101755.97;;;-0.89;100.00
4392;BME280;2210;51.938;8.488;2023-01-25T17:49:15;101763.50;;;-0.93;100.00
4392;BME280;2210;51.938;8.488;2023-01-25T17:53:18;101762.50;;;-0.92;100.00
4392;BME280;2210;51.938;8.488;2023-01-25T17:57:18;101769.78;;;-0.92;100.00
4392;BME280;2210;51.938;8.488;2023-01-25T18:01:36;101774.19;;;-0.91;100.00
4392;BME280;2210;51.938;8.488;2023-01-25T18:05:39;101776.56;;;-0.98;100.00
4392;BME280;2210;51.938;8.488;2023-01-25T18:09:40;101770.88;;;-1.16;100.00
4392;BME280;2210;51.938;8.488;2023-01-25T18:13:45;101762.81;;;-1.06;100.00
4392;BME280;2210;51.938;8.488;2023-01-25T18:17:46;101756.28;;;-1.04;100.00
4392;BME280;2210;51.938;8.488;2023-01-25T18:21:46;101743.69;;;-0.93;100.00
4392;BME280;2210;51.938;8.488;2023-01-25T18:25:47;101741.97;;;-0.94;100.00
4392;BME280;2210;51.938;8.488;2023-01-25T18:30:00;101739.06;;;-1.03;100.00
4392;BME280;2210;51.938;8.488;2023-01-25T18:34:01;101732.53;;;-1.00;100.00
4392;BME280;2210;51.938;8.488;2023-01-25T18:38:01;101730.75;;;-1.11;100.00
4392;BME280;2210;51.938;8.488;2023-01-25T18:42:02;101724.28;;;-0.98;100.00
4392;BME280;2210;51.938;8.488;2023-01-25T18:46:07;101728.06;;;-1.22;100.00
4392;BME280;2210;51.938;8.488;2023-01-25T18:50:11;101723.56;;;-1.33;100.00
4392;BME280;2210;51.938;8.488;2023-01-25T18:54:13;101712.88;;;-1.34;100.00
4392;BME280;2210;51.938;8.488;2023-01-25T18:58:13;101704.75;;;-1.23;100.00
4392;BME280;2210;51.938;8.488;2023-01-25T19:02:17;101701.81;;;-1.31;100.00
4392;BME280;2210;51.938;8.488;2023-01-25T19:06:18;101699.13;;;-1.31;100.00
4392;BME280;2210;51.938;8.488;2023-01-25T19:10:22;101691.00;;;-1.31;100.00
4392;BME280;2210;51.938;8.488;2023-01-25T19:14:25;101683.06;;;-1.44;100.00
4392;BME280;2210;51.938;8.488;2023-01-25T19:18:36;101675.56;;;-1.41;100.00
4392;BME280;2210;51.938;8.488;2023-01-25T19:22:45;101667.91;;;-1.36;100.00
4392;BME280;2210;51.938;8.488;2023-01-25T19:26:49;101673.13;;;-1.23;100.00
4392;BME280;2210;51.938;8.488;2023-01-25T19:30:49;101670.41;;;-1.44;100.00
4392;BME280;2210;51.938;8.488;2023-01-25T19:34:50;101661.97;;;-1.29;100.00
4392;BME280;2210;51.938;8.488;2023-01-25T19:38:50;101642.09;;;-1.19;100.00
4392;BME280;2210;51.938;8.488;2023-01-25T19:42:50;101641.25;;;-1.19;100.00
4392;BME280;2210;51.938;8.488;2023-01-25T19:46:53;101642.69;;;-1.15;100.00
4392;BME280;2210;51.938;8.488;2023-01-25T19:50:54;101638.47;;;-1.29;100.00
4392;BME280;2210;51.938;8.488;2023-01-25T19:55:04;101624.72;;;-1.16;100.00
4392;BME280;2210;51.938;8.488;2023-01-25T19:59:13;101626.59;;;-1.16;100.00
4392;BME280;2210;51.938;8.488;2023-01-25T20:03:14;101627.97;;;-1.22;100.00
4392;BME280;2210;51.938;8.488;2023-01-25T20:07:14;101614.66;;;-1.35;100.00
4392;BME280;2210;51.938;8.488;2023-01-25T20:15:21;101606.06;;;-1.19;100.00
4392;BME280;2210;51.938;8.488;2023-01-25T20:24:06;101604.63;;;-1.23;100.00
4392;BME280;2210;51.938;8.488;2023-01-25T20:28:07;101589.38;;;-1.24;100.00
4392;BME280;2210;51.938;8.488;2023-01-25T20:32:10;101587.38;;;-1.22;100.00
4392;BME280;2210;51.938;8.488;2023-01-25T20:36:11;101592.59;;;-1.30;100.00
4392;BME280;2210;51.938;8.488;2023-01-25T20:40:14;101587.44;;;-1.12;100.00
4392;BME280;2210;51.938;8.488;2023-01-25T20:44:15;101589.75;;;-1.08;100.00
4392;BME280;2210;51.938;8.488;2023-01-25T20:48:16;101599.31;;;-1.04;100.00
4392;BME280;2210;51.938;8.488;2023-01-25T20:52:16;101598.59;;;-1.06;100.00
4392;BME280;2210;51.938;8.488;2023-01-25T20:56:17;101594.31;;;-1.08;100.00
4392;BME280;2210;51.938;8.488;2023-01-25T21:00:21;101579.91;;;-1.09;100.00
4392;BME280;2210;51.938;8.488;2023-01-25T21:04:22;101588.34;;;-1.02;100.00
4392;BME280;2210;51.938;8.488;2023-01-25T21:08:23;101584.50;;;-0.99;100.00
4392;BME280;2210;51.938;8.488;2023-01-25T21:12:23;101592.13;;;-1.14;100.00
4392;BME280;2210;51.938;8.488;2023-01-25T21:16:23;101591.75;;;-1.10;100.00
4392;BME280;2210;51.938;8.488;2023-01-25T21:20:30;101578.19;;;-1.10;100.00
4392;BME280;2210;51.938;8.488;2023-01-25T21:24:33;101578.19;;;-1.10;100.00
4392;BME280;2210;51.938;8.488;2023-01-25T21:28:40;101577.50;;;-1.02;100.00
4392;BME280;2210;51.938;8.488;2023-01-25T21:32:41;101570.84;;;-1.29;100.00
4392;BME280;2210;51.938;8.488;2023-01-25T21:36:42;101564.28;;;-1.26;100.00
4392;BME280;2210;51.938;8.488;2023-01-25T21:40:45;101565.34;;;-1.17;100.00
4392;BME280;2210;51.938;8.488;2023-01-25T21:44:46;101549.00;;;-1.06;100.00
4392;BME280;2210;51.938;8.488;2023-01-25T21:49:07;101555.63;;;-1.20;100.00
4392;BME280;2210;51.938;8.488;2023-01-25T21:53:26;101560.09;;;-1.09;100.00
4392;BME280;2210;51.938;8.488;2023-01-25T21:57:26;101559.59;;;-1.24;100.00
4392;BME280;2210;51.938;8.488;2023-01-25T22:01:26;101562.78;;;-1.40;100.00
4392;BME280;2210;51.938;8.488;2023-01-25T22:05:27;101568.25;;;-1.30;100.00
4392;BME280;2210;51.938;8.488;2023-01-25T22:09:27;101572.25;;;-1.56;100.00
4392;BME280;2210;51.938;8.488;2023-01-25T22:13:33;101578.16;;;-1.83;100.00
4392;BME280;2210;51.938;8.488;2023-01-25T22:17:33;101581.91;;;-1.74;100.00
4392;BME280;2210;51.938;8.488;2023-01-25T22:21:34;101576.72;;;-1.66;100.00
4392;BME280;2210;51.938;8.488;2023-01-25T22:25:34;101579.38;;;-1.55;100.00
4392;BME280;2210;51.938;8.488;2023-01-25T22:29:34;101581.16;;;-1.44;100.00
4392;BME280;2210;51.938;8.488;2023-01-25T22:33:34;101561.53;;;-1.36;100.00
4392;BME280;2210;51.938;8.488;2023-01-25T22:37:35;101562.13;;;-1.32;100.00
4392;BME280;2210;51.938;8.488;2023-01-25T22:41:37;101561.94;;;-1.41;100.00
4392;BME280;2210;51.938;8.488;2023-01-25T22:45:48;101551.41;;;-1.44;100.00